createdAt,value
2018-06-01T00:00:55.178Z,18.78
2018-06-01T00:03:23.790Z,18.77
2018-06-01T00:05:53.060Z,18.72
2018-06-01T00:08:21.953Z,18.70
2018-06-01T00:10:49.981Z,18.60
2018-06-01T00:13:18.320Z,18.68
2018-06-01T00:15:46.407Z,18.73
2018-06-01T00:18:14.377Z,18.79
2018-06-01T00:20:42.456Z,18.80
2018-06-01T00:23:10.423Z,18.75
2018-06-01T00:25:38.516Z,18.69
2018-06-01T00:28:06.790Z,18.59
2018-06-01T00:30:34.760Z,18.49
2018-06-01T00:33:03.761Z,18.42
2018-06-01T00:35:31.979Z,18.41
2018-06-01T00:38:00.023Z,18.29
2018-06-01T00:40:28.060Z,18.20
2018-06-01T00:42:56.014Z,18.23
2018-06-01T00:45:23.951Z,18.21
2018-06-01T00:47:52.005Z,18.14
2018-06-01T00:50:20.953Z,18.08
2018-06-01T00:52:48.884Z,18.11
2018-06-01T00:55:24.943Z,18.01
2018-06-01T00:57:53.011Z,17.93
2018-06-01T01:00:21.087Z,17.86
2018-06-01T01:02:49.160Z,17.80
2018-06-01T01:05:17.187Z,17.83
2018-06-01T01:07:45.212Z,17.81
2018-06-01T01:10:14.512Z,17.80
2018-06-01T01:12:42.574Z,17.76
2018-06-01T01:15:10.574Z,17.72
2018-06-01T01:17:38.639Z,17.70
2018-06-01T01:20:06.465Z,17.76
2018-06-01T01:22:34.444Z,17.84
2018-06-01T01:25:02.475Z,17.79
2018-06-01T01:27:30.546Z,17.75
2018-06-01T01:29:58.621Z,17.74
2018-06-01T01:32:26.921Z,17.82
2018-06-01T01:34:54.891Z,17.78
2018-06-01T01:37:32.160Z,17.83
2018-06-01T01:40:00.241Z,17.82
2018-06-01T01:42:28.313Z,17.79
2018-06-01T01:44:56.476Z,17.79
2018-06-01T01:47:24.464Z,17.84
2018-06-01T01:49:54.794Z,17.76
2018-06-01T01:52:22.873Z,17.73
2018-06-01T01:54:50.953Z,17.66
2018-06-01T01:57:19.007Z,17.63
2018-06-01T01:59:47.107Z,17.59
2018-06-01T02:02:15.181Z,17.51
2018-06-01T02:04:43.251Z,17.50
2018-06-01T02:07:11.332Z,17.44
2018-06-01T02:09:39.302Z,17.39
2018-06-01T02:12:08.093Z,17.32
2018-06-01T02:14:36.152Z,17.27
2018-06-01T02:17:04.229Z,17.25
2018-06-01T02:19:32.216Z,17.24
2018-06-01T02:22:00.398Z,17.25
2018-06-01T02:24:28.483Z,17.28
2018-06-01T02:26:56.461Z,17.25
2018-06-01T02:29:24.479Z,17.29
2018-06-01T02:31:52.406Z,17.24
2018-06-01T02:34:20.579Z,17.17
2018-06-01T02:36:48.653Z,17.14
2018-06-01T02:39:16.623Z,17.16
2018-06-01T02:41:45.535Z,17.24
2018-06-01T02:44:13.606Z,17.29
2018-06-01T02:46:42.602Z,17.34
2018-06-01T02:49:10.576Z,17.34
2018-06-01T02:51:38.648Z,17.30
2018-06-01T02:54:06.729Z,17.24
2018-06-01T02:56:34.704Z,17.19
2018-06-01T02:59:02.778Z,17.14
2018-06-01T03:01:30.849Z,17.13
2018-06-01T03:03:58.823Z,17.11
2018-06-01T03:06:38.673Z,17.11
2018-06-01T03:09:06.751Z,17.20
2018-06-01T03:11:34.714Z,17.23
2018-06-01T03:14:03.354Z,17.33
2018-06-01T03:16:31.272Z,17.35
2018-06-01T03:18:59.315Z,17.44
2018-06-01T03:21:27.346Z,17.47
2018-06-01T03:23:55.312Z,17.51
2018-06-01T03:26:23.385Z,17.55
2018-06-01T03:28:51.459Z,17.58
2018-06-01T03:31:19.540Z,17.68
2018-06-01T03:33:47.610Z,17.84
2018-06-01T03:36:15.755Z,17.86
2018-06-01T03:38:43.870Z,17.95
2018-06-01T03:41:11.953Z,18.06
2018-06-01T03:43:40.031Z,18.11
2018-06-01T03:46:08.099Z,18.23
2018-06-01T03:48:36.045Z,18.32
2018-06-01T03:51:03.999Z,18.37
2018-06-01T03:53:32.054Z,18.46
2018-06-01T03:56:00.088Z,18.54
2018-06-01T03:58:28.169Z,18.63
2018-06-01T04:00:56.247Z,18.74
2018-06-01T04:03:24.292Z,18.84
2018-06-01T04:05:52.285Z,18.89
2018-06-01T04:08:20.371Z,19.02
2018-06-01T04:10:48.460Z,19.11
2018-06-01T04:13:16.431Z,19.26
2018-06-01T04:15:45.086Z,19.37
2018-06-01T04:18:13.280Z,19.45
2018-06-01T04:20:41.367Z,19.55
2018-06-01T04:23:09.344Z,19.67
2018-06-01T04:25:37.417Z,19.79
2018-06-01T04:28:05.387Z,19.92
2018-06-01T04:30:33.373Z,20.03
2018-06-01T04:33:01.340Z,20.14
2018-06-01T04:35:29.410Z,20.27
2018-06-01T04:37:57.493Z,20.41
2018-06-01T04:40:25.728Z,20.54
2018-06-01T04:42:53.852Z,20.68
2018-06-01T04:45:21.931Z,20.80
2018-06-01T04:47:50.648Z,20.91
2018-06-01T04:50:18.697Z,20.97
2018-06-01T04:52:46.668Z,21.03
2018-06-01T04:55:14.738Z,21.08
2018-06-01T04:57:42.990Z,21.10
2018-06-01T05:00:11.019Z,21.13
2018-06-01T05:02:39.084Z,21.18
2018-06-01T05:05:07.160Z,21.24
2018-06-01T05:07:35.123Z,21.31
2018-06-01T05:10:03.167Z,21.42
2018-06-01T05:12:31.173Z,21.51
2018-06-01T05:14:59.963Z,21.66
2018-06-01T05:17:28.044Z,21.81
2018-06-01T05:19:56.119Z,21.97
2018-06-01T05:22:24.107Z,22.11
2018-06-01T05:24:52.167Z,22.19
2018-06-01T05:27:20.245Z,22.23
2018-06-01T05:29:48.298Z,22.30
2018-06-01T05:32:16.298Z,22.37
2018-06-01T05:34:45.103Z,22.40
2018-06-01T05:37:13.067Z,22.50
2018-06-01T05:39:41.051Z,22.60
2018-06-01T05:42:09.214Z,22.71
2018-06-01T05:44:37.299Z,22.82
2018-06-01T05:47:05.331Z,22.89
2018-06-01T05:49:33.324Z,23.04
2018-06-01T05:52:01.408Z,23.12
2018-06-01T05:54:29.420Z,23.17
2018-06-01T05:56:57.402Z,23.22
2018-06-01T05:59:25.341Z,23.28
2018-06-01T06:01:53.421Z,23.35
2018-06-01T06:04:21.489Z,23.37
2018-06-01T06:06:49.671Z,23.41
2018-06-01T06:09:17.754Z,23.47
2018-06-01T06:11:46.284Z,23.51
2018-06-01T06:14:14.323Z,23.57
2018-06-01T06:16:42.294Z,23.62
2018-06-01T06:19:11.377Z,23.73
2018-06-01T06:21:39.461Z,23.83
2018-06-01T06:24:07.539Z,23.97
2018-06-01T06:26:35.517Z,24.06
2018-06-01T06:29:03.592Z,24.14
2018-06-01T06:31:31.581Z,24.22
2018-06-01T06:33:59.587Z,24.30
2018-06-01T06:36:27.586Z,24.40
2018-06-01T06:38:55.584Z,24.51
2018-06-01T06:41:23.566Z,24.62
2018-06-01T06:43:51.541Z,24.70
2018-06-01T06:46:19.513Z,24.78
2018-06-01T06:48:47.595Z,24.90
2018-06-01T06:51:15.658Z,24.95
2018-06-01T06:53:43.636Z,24.98
2018-06-01T06:56:11.822Z,25.06
2018-06-01T06:58:39.887Z,25.14
2018-06-01T07:01:07.860Z,25.22
2018-06-01T07:03:36.148Z,25.30
2018-06-01T07:06:04.331Z,25.38
2018-06-01T07:08:32.383Z,25.49
2018-06-01T07:11:00.484Z,25.57
2018-06-01T07:13:29.616Z,25.62
2018-06-01T07:15:57.661Z,25.72
2018-06-01T07:18:25.628Z,25.85
2018-06-01T07:20:53.709Z,25.86
2018-06-01T07:23:21.863Z,25.88
2018-06-01T07:25:50.683Z,25.96
2018-06-01T07:28:18.750Z,26.05
2018-06-01T07:30:46.837Z,26.10
2018-06-01T07:33:14.913Z,26.07
2018-06-01T07:35:42.883Z,26.20
2018-06-01T07:38:10.954Z,26.34
2018-06-01T07:40:38.955Z,26.49
2018-06-01T07:43:07.004Z,26.57
2018-06-01T07:45:34.976Z,26.51
2018-06-01T07:48:03.669Z,26.56
2018-06-01T07:50:31.851Z,26.61
2018-06-01T07:52:59.888Z,26.68
2018-06-01T07:55:27.849Z,26.82
2018-06-01T07:57:55.876Z,26.93
2018-06-01T08:00:24.049Z,27.03
2018-06-01T08:02:52.123Z,27.14
2018-06-01T08:05:20.205Z,27.10
2018-06-01T08:07:48.173Z,27.21
2018-06-01T08:10:16.363Z,27.31
2018-06-01T08:12:44.435Z,27.41
2018-06-01T08:15:12.873Z,27.50
2018-06-01T08:17:40.996Z,27.53
2018-06-01T08:20:09.079Z,27.53
2018-06-01T08:22:37.858Z,27.64
2018-06-01T08:25:06.702Z,27.77
2018-06-01T08:27:35.652Z,27.82
2018-06-01T08:30:03.800Z,27.93
2018-06-01T08:32:32.132Z,28.04
2018-06-01T08:35:00.196Z,28.09
2018-06-01T08:37:28.934Z,28.21
2018-06-01T08:39:57.113Z,28.18
2018-06-01T08:42:25.138Z,28.19
2018-06-01T08:44:53.208Z,28.27
2018-06-01T08:47:21.288Z,28.32
2018-06-01T08:49:49.364Z,28.40
2018-06-01T08:52:17.548Z,28.54
2018-06-01T08:54:45.718Z,28.64
2018-06-01T08:57:13.809Z,28.62
2018-06-01T08:59:41.872Z,28.78
2018-06-01T09:02:10.251Z,28.89
2018-06-01T09:04:38.448Z,28.95
2018-06-01T09:07:06.617Z,28.88
2018-06-01T09:09:34.693Z,28.82
2018-06-01T09:12:02.873Z,28.78
2018-06-01T09:14:31.009Z,28.94
2018-06-01T09:16:58.968Z,29.06
2018-06-01T09:19:27.885Z,29.18
2018-06-01T09:21:55.952Z,29.34
2018-06-01T09:24:24.169Z,29.46
2018-06-01T09:26:52.253Z,29.58
2018-06-01T09:29:21.451Z,29.67
2018-06-01T09:31:49.484Z,29.66
2018-06-01T09:34:17.513Z,29.78
2018-06-01T09:36:45.581Z,29.85
2018-06-01T09:39:13.653Z,30.01
2018-06-01T10:17:15.029Z,31.28
2018-06-01T10:19:44.041Z,31.43
2018-06-01T10:22:12.118Z,31.74
2018-06-01T10:24:40.229Z,31.92
2018-06-01T10:27:08.302Z,32.00
2018-06-01T10:29:36.377Z,31.93
2018-06-01T10:32:04.463Z,31.89
2018-06-01T10:34:32.504Z,31.80
2018-06-01T10:37:00.514Z,31.96
2018-06-01T10:39:28.624Z,32.14
2018-06-01T10:41:56.656Z,32.65
2018-06-01T10:44:24.667Z,33.02
2018-06-01T10:46:52.759Z,33.47
2018-06-01T10:49:20.759Z,33.64
2018-06-01T10:51:48.879Z,33.90
2018-06-01T10:54:16.941Z,34.31
2018-06-01T10:56:44.915Z,34.42
2018-06-01T10:59:12.993Z,34.55
2018-06-01T11:01:41.264Z,34.71
2018-06-01T11:04:09.344Z,34.24
2018-06-01T11:06:37.522Z,34.23
2018-06-01T11:09:06.015Z,34.55
2018-06-01T11:11:34.085Z,34.85
2018-06-01T11:14:02.159Z,35.08
2018-06-01T11:16:30.454Z,35.16
2018-06-01T11:18:59.571Z,35.22
2018-06-01T11:21:27.705Z,35.51
2018-06-01T11:23:55.690Z,35.84
2018-06-01T11:26:23.776Z,36.24
2018-06-01T11:28:51.844Z,36.46
2018-06-01T11:31:19.934Z,36.76
2018-06-01T11:33:48.974Z,37.74
2018-06-01T11:36:16.996Z,38.64
2018-06-01T11:38:45.080Z,39.56
2018-06-01T11:41:13.044Z,40.11
2018-06-01T11:43:41.121Z,40.52
2018-06-01T11:46:09.193Z,40.86
2018-06-01T11:48:37.181Z,40.57
2018-06-01T11:51:05.254Z,40.85
2018-06-01T11:53:33.445Z,41.23
2018-06-01T11:56:01.484Z,40.63
2018-06-01T11:58:29.482Z,41.20
2018-06-01T12:00:57.562Z,41.81
2018-06-01T12:03:25.633Z,41.69
2018-06-01T12:05:53.674Z,42.05
2018-06-01T12:08:21.797Z,42.59
2018-06-01T12:10:49.766Z,42.96
2018-06-01T12:13:17.729Z,43.48
2018-06-01T12:15:46.897Z,43.73
2018-06-01T12:18:14.800Z,43.79
2018-06-01T12:20:42.881Z,44.23
2018-06-01T12:23:10.915Z,44.38
2018-06-01T12:25:39.041Z,44.50
2018-06-01T12:28:07.005Z,44.73
2018-06-01T12:30:35.066Z,44.79
2018-06-01T12:33:04.082Z,45.13
2018-06-01T12:35:32.256Z,45.66
2018-06-01T12:38:00.294Z,45.86
2018-06-01T12:40:28.424Z,46.14
2018-06-01T12:42:56.489Z,46.43
2018-06-01T12:45:24.677Z,46.80
2018-06-01T12:47:52.711Z,47.18
2018-06-01T12:50:20.961Z,46.96
2018-06-01T12:52:49.100Z,46.70
2018-06-01T12:55:17.085Z,46.15
2018-06-01T12:57:45.157Z,45.89
2018-06-01T13:00:13.226Z,46.04
2018-06-01T13:04:27.938Z,46.52
2018-06-01T13:06:56.115Z,47.08
2018-06-01T13:09:24.089Z,47.29
2018-06-01T13:11:52.268Z,46.59
2018-06-01T13:14:20.643Z,46.44
2018-06-01T13:16:49.502Z,46.62
2018-06-01T13:19:17.627Z,46.62
2018-06-01T13:21:48.151Z,46.86
2018-06-01T13:24:16.137Z,46.36
2018-06-01T13:26:44.206Z,45.67
2018-06-01T13:29:12.238Z,45.51
2018-06-01T13:31:40.411Z,45.91
2018-06-01T13:34:08.434Z,45.97
2018-06-01T13:36:36.817Z,46.17
2018-06-01T13:39:07.640Z,46.27
2018-06-01T13:41:35.731Z,46.72
2018-06-01T13:44:03.907Z,47.15
2018-06-01T13:46:31.999Z,47.29
2018-06-01T13:49:00.061Z,47.08
2018-06-01T13:51:28.249Z,47.49
2018-06-01T13:53:56.298Z,47.76
2018-06-01T13:56:24.301Z,47.86
2018-06-01T13:58:52.583Z,47.65
2018-06-01T14:01:20.757Z,47.56
2018-06-01T14:03:49.849Z,47.21
2018-06-01T14:06:17.929Z,47.00
2018-06-01T14:08:46.013Z,47.03
2018-06-01T14:11:14.699Z,47.31
2018-06-01T14:13:42.778Z,47.32
2018-06-01T14:16:10.950Z,47.37
2018-06-01T14:18:39.083Z,46.54
2018-06-01T14:21:07.615Z,45.70
2018-06-01T14:23:36.782Z,44.99
2018-06-01T14:26:04.904Z,44.27
2018-06-01T14:28:32.914Z,43.86
2018-06-01T14:31:00.950Z,43.38
2018-06-01T14:33:29.016Z,43.16
2018-06-01T14:35:58.109Z,42.94
2018-06-01T14:38:26.298Z,42.90
2018-06-01T14:58:20.427Z,43.56
2018-06-01T15:00:48.603Z,42.91
2018-06-01T15:03:16.576Z,42.79
2018-06-01T15:05:44.660Z,42.97
2018-06-01T15:08:12.643Z,43.02
2018-06-01T15:10:40.707Z,43.06
2018-06-01T15:13:08.717Z,42.48
2018-06-01T15:15:36.765Z,42.17
2018-06-01T15:18:04.774Z,41.05
2018-06-01T15:20:34.074Z,39.57
2018-06-01T15:23:02.121Z,37.95
2018-06-01T15:25:30.183Z,36.74
2018-06-01T15:27:58.464Z,35.71
2018-06-01T15:30:26.551Z,34.95
2018-06-01T15:32:54.616Z,34.32
2018-06-01T15:35:22.708Z,33.84
2018-06-01T15:37:50.667Z,33.56
2018-06-01T15:40:19.667Z,33.23
2018-06-01T15:42:47.756Z,32.85
2018-06-01T15:45:15.823Z,32.07
2018-06-01T15:47:43.865Z,31.49
2018-06-01T15:50:12.886Z,31.14
2018-06-01T15:52:40.974Z,30.71
2018-06-01T15:55:09.015Z,30.35
2018-06-01T15:57:37.126Z,30.11
2018-06-01T16:00:05.705Z,29.92
2018-06-01T16:02:33.767Z,29.64
2018-06-01T16:05:01.828Z,29.43
2018-06-01T16:07:29.843Z,29.30
2018-06-01T16:09:57.912Z,29.17
2018-06-01T16:12:26.007Z,29.06
2018-06-01T16:14:54.073Z,28.56
2018-06-01T16:17:22.223Z,26.37
2018-06-01T16:19:50.324Z,24.63
2018-06-01T16:22:19.119Z,23.71
2018-06-01T16:24:47.848Z,23.32
2018-06-01T16:27:16.188Z,22.97
2018-06-01T16:29:44.370Z,22.72
2018-06-01T16:32:12.447Z,22.36
2018-06-01T16:34:40.517Z,22.13
2018-06-01T16:37:08.548Z,21.97
2018-06-01T16:39:36.583Z,22.03
2018-06-01T16:42:04.648Z,22.04
2018-06-01T16:44:32.678Z,22.01
2018-06-01T16:47:00.693Z,22.14
2018-06-01T16:49:28.857Z,22.17
2018-06-01T16:51:56.852Z,22.23
2018-06-01T16:54:24.929Z,21.97
2018-06-01T16:56:52.999Z,21.73
2018-06-01T16:59:22.111Z,21.19
2018-06-01T17:01:50.996Z,20.83
2018-06-01T17:04:19.062Z,20.59
2018-06-01T17:06:47.148Z,20.49
2018-06-01T17:09:15.282Z,20.47
2018-06-01T17:11:43.300Z,20.40
2018-06-01T17:14:11.370Z,20.34
2018-06-01T17:16:39.452Z,20.37
2018-06-01T17:19:07.926Z,20.43
2018-06-01T17:21:36.005Z,20.50
2018-06-01T17:24:04.148Z,20.52
2018-06-01T17:26:32.168Z,20.56
2018-06-01T17:29:00.287Z,20.55
2018-06-01T17:31:28.536Z,20.47
2018-06-01T17:33:56.602Z,20.46
2018-06-01T17:36:24.682Z,20.46
2018-06-01T17:38:52.753Z,20.46
2018-06-01T17:41:20.737Z,20.43
2018-06-01T17:43:48.801Z,20.44
2018-06-01T17:46:17.213Z,20.42
2018-06-01T17:48:45.365Z,20.50
2018-06-01T17:51:13.445Z,20.60
2018-06-01T17:53:41.516Z,20.63
2018-06-01T17:56:10.593Z,20.55
2018-06-01T17:58:38.612Z,20.47
2018-06-01T18:01:06.782Z,20.47
2018-06-01T18:03:34.850Z,20.51
2018-06-01T18:06:02.920Z,20.41
2018-06-01T18:08:30.998Z,20.33
2018-06-01T18:10:59.090Z,20.23
2018-06-01T18:13:27.157Z,20.19
2018-06-01T18:15:56.295Z,20.16
2018-06-01T18:18:24.437Z,20.10
2018-06-01T18:20:52.481Z,20.12
2018-06-01T18:23:20.486Z,20.10
2018-06-01T18:25:49.636Z,20.06
2018-06-01T18:28:17.655Z,20.00
2018-06-01T18:30:45.796Z,19.95
2018-06-01T18:33:13.819Z,19.93
2018-06-01T18:35:41.893Z,19.92
2018-06-01T18:38:09.919Z,19.91
2018-06-01T18:40:38.146Z,19.87
2018-06-01T18:43:06.248Z,19.84
2018-06-01T18:45:34.192Z,19.79
2018-06-01T18:48:02.269Z,19.74
2018-06-01T18:50:31.433Z,19.67
2018-06-01T18:52:59.446Z,19.60
2018-06-01T18:55:27.517Z,19.56
2018-06-01T18:57:55.598Z,19.53
2018-06-01T19:00:23.785Z,19.50
2018-06-01T19:02:51.858Z,19.50
2018-06-01T19:05:19.920Z,19.54
2018-06-01T19:07:48.001Z,19.53
2018-06-01T19:10:17.671Z,19.48
2018-06-01T19:12:45.705Z,19.49
2018-06-01T19:15:13.777Z,19.47
2018-06-01T19:17:41.946Z,19.44
2018-06-01T19:20:10.024Z,19.42
2018-06-01T19:22:38.047Z,19.41
2018-06-01T19:25:07.311Z,19.40
2018-06-01T19:27:35.475Z,19.39
2018-06-01T19:30:03.763Z,19.40
2018-06-01T19:32:31.933Z,19.40
2018-06-01T19:35:00.222Z,19.40
2018-06-01T19:37:28.265Z,19.41
2018-06-01T19:39:56.384Z,19.40
2018-06-01T19:42:24.454Z,19.45
2018-06-01T19:44:52.636Z,19.46
2018-06-01T19:47:21.529Z,19.45
2018-06-01T19:49:49.617Z,19.45
2018-06-01T19:52:18.509Z,19.45
2018-06-01T19:54:46.779Z,19.46
2018-06-01T19:57:14.859Z,19.48
2018-06-01T19:59:42.927Z,19.46
2018-06-01T20:02:11.011Z,19.44
2018-06-01T20:04:39.058Z,19.44
2018-06-01T20:07:07.053Z,19.49
2018-06-01T20:09:35.117Z,19.49
2018-06-01T20:12:03.218Z,19.47
2018-06-01T20:14:31.694Z,19.45
2018-06-01T20:16:59.835Z,19.45
2018-06-01T20:19:27.855Z,19.45
2018-06-01T20:21:55.927Z,19.42
2018-06-01T20:24:25.839Z,19.40
2018-06-01T20:26:54.012Z,19.39
2018-06-01T20:29:23.024Z,19.36
2018-06-01T20:31:51.103Z,19.34
2018-06-01T20:34:19.194Z,19.33
2018-06-01T20:36:47.211Z,19.31
2018-06-01T20:39:15.323Z,19.31
2018-06-01T20:41:43.401Z,19.34
2018-06-01T20:44:11.477Z,19.33
2018-06-01T20:46:39.637Z,19.33
2018-06-01T20:49:07.743Z,19.32
2018-06-01T20:51:35.804Z,19.34
2018-06-01T20:54:03.890Z,19.34
2018-06-01T20:56:31.937Z,19.36
2018-06-01T20:58:59.947Z,19.34
2018-06-01T21:01:28.088Z,19.31
2018-06-01T21:03:56.198Z,19.29
2018-06-01T21:06:24.260Z,19.28
2018-06-01T21:08:52.345Z,19.29
2018-06-01T21:11:20.374Z,19.30
2018-06-01T21:13:48.396Z,19.29
2018-06-01T21:16:16.469Z,19.32
2018-06-01T21:18:44.559Z,19.34
2018-06-01T21:21:12.653Z,19.34
2018-06-01T21:23:40.811Z,19.30
2018-06-01T21:26:08.890Z,19.28
2018-06-01T21:28:36.848Z,19.26
2018-06-01T21:31:06.051Z,19.24
2018-06-01T21:33:34.022Z,19.24
2018-06-01T21:36:02.104Z,19.23
2018-06-01T21:38:30.182Z,19.19
2018-06-01T21:40:58.162Z,19.15
2018-06-01T21:43:26.239Z,19.08
2018-06-01T21:45:54.307Z,19.06
2018-06-01T21:48:22.365Z,19.02
2018-06-01T21:50:50.463Z,18.94
2018-06-01T21:53:18.536Z,18.91
2018-06-01T21:55:46.535Z,18.85
2018-06-01T21:58:14.688Z,18.76
2018-06-01T22:00:42.766Z,18.68
2018-06-01T22:03:10.785Z,18.59
2018-06-01T22:05:38.815Z,18.52
2018-06-01T22:08:07.001Z,18.47
2018-06-01T22:10:35.038Z,18.44
2018-06-01T22:13:03.146Z,18.41
2018-06-01T22:15:31.224Z,18.39
2018-06-01T22:17:59.307Z,18.36
2018-06-01T22:20:27.678Z,18.37
2018-06-01T22:22:55.757Z,18.36
2018-06-01T22:25:24.738Z,18.37
2018-06-01T22:27:52.730Z,18.37
2018-06-01T22:30:20.798Z,18.35
2018-06-01T22:32:48.929Z,18.35
2018-06-01T22:35:16.845Z,18.37
2018-06-01T22:37:44.872Z,18.39
2018-06-01T22:40:12.875Z,18.41
2018-06-01T22:42:41.001Z,18.41
2018-06-01T22:45:10.086Z,18.42
2018-06-01T22:47:38.015Z,18.43
2018-06-01T22:50:06.020Z,18.44
2018-06-01T22:52:34.209Z,18.45
2018-06-01T22:55:02.287Z,18.44
2018-06-01T22:57:30.358Z,18.44
2018-06-01T22:59:58.500Z,18.43
2018-06-01T23:02:26.521Z,18.43
2018-06-01T23:04:54.594Z,18.41
2018-06-01T23:07:22.663Z,18.41
2018-06-01T23:09:50.749Z,18.41
2018-06-01T23:12:18.815Z,18.44
2018-06-01T23:14:47.004Z,18.45
2018-06-01T23:17:14.978Z,18.46
2018-06-01T23:19:43.081Z,18.48
2018-06-01T23:22:11.322Z,18.48
2018-06-01T23:24:39.410Z,18.46
2018-06-01T23:27:07.481Z,18.47
2018-06-01T23:29:35.569Z,18.46
2018-06-01T23:32:03.634Z,18.44
2018-06-01T23:34:32.239Z,18.43
2018-06-01T23:37:00.278Z,18.42
2018-06-01T23:39:28.244Z,18.38
2018-06-01T23:41:56.314Z,18.37
2018-06-01T23:44:24.384Z,18.35
2018-06-01T23:46:52.512Z,18.34
2018-06-01T23:49:20.587Z,18.32
2018-06-01T23:51:48.660Z,18.30
2018-06-01T23:54:16.734Z,18.27
2018-06-01T23:56:44.810Z,18.23
2018-06-01T23:59:12.980Z,18.20
